Time;durP1;ratioP1;P1;durP2;ratioP2;P2;SDS_P1;SDS_P2;PMS_P1;PMS_P2;Temp;Humidity;BMP_temperature;BMP_pressure;BME280_temperature;BME280_humidity;BME280_pressure;Samples;Min_cycle;Max_cycle;Signal;HPM_P1;HPM_P2
2022/07/30 00:00:44;;;;;;;0.15;0.10;;;21.10;99.90;;;;;;5091933;28;20028;-77
2022/07/30 00:03:10;;;;;;;0.10;0.10;;;20.90;99.90;;;;;;5092041;28;20484;-77
2022/07/30 00:05:36;;;;;;;0.00;0.00;;;20.90;99.90;;;;;;5092027;28;20051;-77
2022/07/30 00:08:03;;;;;;;0.00;0.00;;;20.90;99.90;;;;;;5073834;28;20503;-78
2022/07/30 00:10:29;;;;;;;0.00;0.00;;;21.10;99.90;;;;;;5072916;28;20032;-78
2022/07/30 00:12:56;;;;;;;0.00;0.00;;;21.30;99.90;;;;;;5073568;28;20020;-78
2022/07/30 00:15:22;;;;;;;0.00;0.00;;;21.10;99.90;;;;;;5091990;28;20476;-78
2022/07/30 00:17:48;;;;;;;0.00;0.00;;;21.00;99.90;;;;;;5090406;28;20024;-77
2022/07/30 00:20:14;;;;;;;1.48;1.45;;;20.80;99.90;;;;;;5073556;28;20027;-78
2022/07/30 00:22:41;;;;;;;0.00;0.00;;;20.90;99.90;;;;;;5088678;28;20031;-77
2022/07/30 00:25:07;;;;;;;0.00;0.00;;;21.00;99.90;;;;;;5092685;28;20038;-78
2022/07/30 00:27:34;;;;;;;0.05;0.05;;;21.10;99.90;;;;;;5092075;28;20028;-78
2022/07/30 00:30:00;;;;;;;0.00;0.00;;;21.10;99.90;;;;;;5073832;28;20012;-78
2022/07/30 00:32:26;;;;;;;0.00;0.00;;;21.20;99.90;;;;;;5092889;28;20027;-78
2022/07/30 00:34:52;;;;;;;0.00;0.00;;;21.20;99.90;;;;;;5076181;28;20032;-77
2022/07/30 00:37:18;;;;;;;0.00;0.00;;;21.40;99.90;;;;;;5095451;28;20027;-77
2022/07/30 00:39:45;;;;;;;0.43;0.43;;;21.50;99.90;;;;;;5093984;28;20029;-77
2022/07/30 00:42:10;;;;;;;0.00;0.00;;;21.80;99.90;;;;;;5090866;28;20384;-77
2022/07/30 00:44:37;;;;;;;0.20;0.13;;;21.70;99.90;;;;;;5075781;28;20030;-77
2022/07/30 00:47:03;;;;;;;0.00;0.00;;;21.80;99.90;;;;;;5071314;28;20039;-77
2022/07/30 00:49:29;;;;;;;0.00;0.00;;;21.70;99.90;;;;;;5095828;28;20028;-77
2022/07/30 00:51:55;;;;;;;2.45;1.05;;;21.90;99.90;;;;;;5078460;28;20123;-77
2022/07/30 00:54:21;;;;;;;0.98;0.98;;;21.90;99.90;;;;;;5077759;28;20031;-76
2022/07/30 00:56:48;;;;;;;0.17;0.17;;;21.80;99.90;;;;;;5078745;28;20032;-78
2022/07/30 00:59:14;;;;;;;0.00;0.00;;;21.90;99.90;;;;;;5084420;28;20044;-78
2022/07/30 01:01:40;;;;;;;0.22;0.22;;;21.90;99.90;;;;;;5105415;28;20043;-78
2022/07/30 01:04:10;;;;;;;13.57;6.72;;;21.90;99.90;;;;;;5095905;28;20078;-78
2022/07/30 01:06:38;;;;;;;1.08;1.08;;;21.90;99.90;;;;;;5094232;28;20109;-79
2022/07/30 01:09:04;;;;;;;1.17;1.05;;;21.90;99.90;;;;;;5094917;28;20031;-79
2022/07/30 01:11:37;;;;;;;0.00;0.00;;;22.00;99.90;;;;;;5078381;28;20045;-78
2022/07/30 01:14:05;;;;;;;3.58;3.28;;;22.00;99.90;;;;;;5078151;28;20384;-78
2022/07/30 01:16:33;;;;;;;0.00;0.00;;;22.40;99.90;;;;;;5095269;28;20035;-78
2022/07/30 01:21:51;;;;;;;4.00;3.58;;;22.90;99.90;;;;;;5097418;28;20035;-79
2022/07/30 01:24:39;;;;;;;1.20;1.17;;;22.50;99.90;;;;;;5080814;28;20032;-78
2022/07/30 01:27:06;;;;;;;3.45;2.45;;;22.70;99.90;;;;;;5110506;28;20020;-78
2022/07/30 01:29:33;;;;;;;1.88;1.75;;;22.60;99.90;;;;;;5103623;28;20024;-78
2022/07/30 01:32:00;;;;;;;1.40;1.20;;;22.70;99.90;;;;;;5095104;28;20434;-79
2022/07/30 01:34:29;;;;;;;0.90;0.88;;;22.50;99.90;;;;;;5095433;28;20054;-78
2022/07/30 01:36:58;;;;;;;8.18;3.17;;;22.60;99.90;;;;;;5093165;28;20012;-78
2022/07/30 01:39:25;;;;;;;3.63;1.98;;;22.70;99.90;;;;;;5093854;28;20111;-78
2022/07/30 01:41:56;;;;;;;4.03;0.43;;;22.60;99.90;;;;;;5094720;28;20475;-78
2022/07/30 01:44:25;;;;;;;2.15;1.77;;;22.70;99.90;;;;;;5094412;28;20491;-78
2022/07/30 01:46:54;;;;;;;1.85;1.75;;;22.60;99.90;;;;;;5075576;28;20028;-77
2022/07/30 01:49:22;;;;;;;11.10;8.05;;;22.60;99.90;;;;;;5094181;28;20077;-78
2022/07/30 01:51:49;;;;;;;7.63;5.50;;;22.40;99.90;;;;;;5093515;28;20117;-78
2022/07/30 01:54:18;;;;;;;3.60;3.25;;;22.60;99.90;;;;;;5075829;28;20384;-78
2022/07/30 01:56:46;;;;;;;0.30;0.30;;;22.80;99.90;;;;;;5093770;28;20024;-78
2022/07/30 01:59:15;;;;;;;2.15;1.77;;;22.90;99.90;;;;;;5091314;28;20044;-78
2022/07/30 02:01:41;;;;;;;1.85;1.75;;;22.80;99.90;;;;;;5097236;28;20016;-78
2022/07/30 02:04:07;;;;;;;3.13;2.92;;;22.90;99.90;;;;;;5115333;28;20020;-78
2022/07/30 02:06:51;;;;;;;5.65;2.88;;;23.10;99.90;;;;;;5098757;28;20060;-78
2022/07/30 02:09:24;;;;;;;6.22;5.72;;;23.10;99.90;;;;;;5074135;28;20046;-77
2022/07/30 02:14:46;;;;;;;0.55;0.55;;;23.10;99.90;;;;;;5092083;28;20061;-77
2022/07/30 02:17:20;;;;;;;7.03;3.80;;;23.10;99.90;;;;;;5073100;28;20418;-78
2022/07/30 02:19:52;;;;;;;0.65;0.45;;;23.00;99.90;;;;;;5093420;28;20020;-78
2022/07/30 02:22:19;;;;;;;0.22;0.17;;;22.80;99.90;;;;;;5093649;28;20042;-78
2022/07/30 02:24:48;;;;;;;0.00;0.00;;;23.10;99.90;;;;;;5093407;28;20089;-78
2022/07/30 02:27:28;;;;;;;0.00;0.00;;;24.00;99.90;;;;;;5093410;28;20016;-78
2022/07/30 02:29:56;;;;;;;14.40;2.38;;;25.30;99.90;;;;;;5093489;28;20024;-78
2022/07/30 02:32:25;;;;;;;0.00;0.00;;;25.90;99.90;;;;;;5074969;28;20540;-78
2022/07/30 02:34:57;;;;;;;4.68;2.70;;;25.30;99.90;;;;;;5093286;28;20032;-78
2022/07/30 02:37:25;;;;;;;0.00;0.00;;;25.60;99.90;;;;;;5090535;28;20056;-78
2022/07/30 02:39:54;;;;;;;2.97;1.77;;;25.40;99.90;;;;;;5093204;28;20039;-78
2022/07/30 02:42:23;;;;;;;1.27;0.47;;;25.20;99.90;;;;;;5093369;28;20162;-78
2022/07/30 02:44:52;;;;;;;0.00;0.00;;;25.00;99.90;;;;;;5093587;28;20353;-76
2022/07/30 02:47:21;;;;;;;0.75;0.52;;;25.30;99.90;;;;;;5077251;28;20055;-77
2022/07/30 02:49:48;;;;;;;0.30;0.30;;;26.20;99.90;;;;;;5091639;28;20024;-77
2022/07/30 02:52:15;;;;;;;0.15;0.15;;;26.60;99.90;;;;;;5091590;28;20024;-77
2022/07/30 02:54:43;;;;;;;5.97;1.92;;;26.10;99.90;;;;;;5076438;28;20036;-78
2022/07/30 02:57:10;;;;;;;0.90;0.90;;;25.40;99.90;;;;;;5086036;28;20513;-78
2022/07/30 02:59:40;;;;;;;1.83;1.73;;;25.20;99.90;;;;;;5085275;28;20047;-78
2022/07/30 03:02:08;;;;;;;1.08;0.98;;;25.00;99.90;;;;;;5089397;28;20016;-77
2022/07/30 03:04:35;;;;;;;0.10;0.10;;;24.70;99.90;;;;;;5082052;28;20048;-77
2022/07/30 03:07:02;;;;;;;3.80;2.03;;;24.60;99.90;;;;;;5073165;28;20469;-77
2022/07/30 03:09:29;;;;;;;0.00;0.00;;;24.60;99.90;;;;;;5073107;28;20028;-78
2022/07/30 03:11:56;;;;;;;0.00;0.00;;;24.30;99.90;;;;;;5077218;28;20504;-78
2022/07/30 03:14:22;;;;;;;0.77;0.60;;;24.00;99.90;;;;;;5073448;28;20313;-78
2022/07/30 03:16:54;;;;;;;6.78;1.95;;;24.40;99.90;;;;;;5072919;28;20031;-77
2022/07/30 03:19:22;;;;;;;0.20;0.20;;;24.70;99.90;;;;;;5075913;28;20404;-77
2022/07/30 03:21:50;;;;;;;0.85;0.85;;;24.60;99.90;;;;;;5073877;28;20085;-78
2022/07/30 03:24:18;;;;;;;0.00;0.00;;;24.00;99.90;;;;;;5072932;28;20254;-77
2022/07/30 03:26:45;;;;;;;0.32;0.32;;;24.10;99.90;;;;;;5093129;28;20036;-79
2022/07/30 03:29:13;;;;;;;1.13;1.13;;;24.20;99.90;;;;;;5075007;28;20035;-77
2022/07/30 03:31:40;;;;;;;1.92;1.73;;;24.40;99.90;;;;;;5091315;28;20039;-78
2022/07/30 03:34:07;;;;;;;2.75;0.70;;;24.40;99.90;;;;;;5086937;28;20024;-78
2022/07/30 03:36:35;;;;;;;1.08;0.35;;;24.20;99.90;;;;;;5089670;28;20032;-78
2022/07/30 03:39:03;;;;;;;1.13;1.08;;;24.20;99.90;;;;;;5092198;28;20050;-78
2022/07/30 03:41:31;;;;;;;0.00;0.00;;;24.00;99.90;;;;;;5089582;28;20016;-77
2022/07/30 03:43:59;;;;;;;0.75;0.75;;;23.90;99.90;;;;;;5092499;28;20016;-77
2022/07/30 03:46:27;;;;;;;0.00;0.00;;;24.30;99.90;;;;;;5092795;28;20147;-78
2022/07/30 03:48:54;;;;;;;0.00;0.00;;;24.60;99.90;;;;;;5092731;28;20020;-77
2022/07/30 03:51:20;;;;;;;0.28;0.28;;;24.10;99.90;;;;;;5092460;28;20024;-78
2022/07/30 03:53:47;;;;;;;1.17;0.10;;;23.80;99.90;;;;;;5092391;28;20028;-77
2022/07/30 03:56:14;;;;;;;0.00;0.00;;;23.80;99.90;;;;;;5092150;28;20023;-78
2022/07/30 03:58:40;;;;;;;2.10;1.90;;;23.70;99.90;;;;;;5091744;28;20040;-78
2022/07/30 04:01:06;;;;;;;0.88;0.88;;;23.50;99.90;;;;;;5090705;28;20095;-78
2022/07/30 04:03:33;;;;;;;1.45;0.93;;;23.50;99.90;;;;;;5085015;28;20115;-77
2022/07/30 04:06:00;;;;;;;0.00;0.00;;;23.50;99.90;;;;;;5073162;28;20034;-78
2022/07/30 04:08:27;;;;;;;0.60;0.38;;;23.40;99.90;;;;;;5092862;28;20099;-78
2022/07/30 04:10:53;;;;;;;0.00;0.00;;;23.50;99.90;;;;;;5096319;28;20081;-79
2022/07/30 04:13:19;;;;;;;0.82;0.70;;;23.50;99.90;;;;;;5096501;28;20477;-77
2022/07/30 04:16:14;;;;;;;8.45;1.50;;;23.70;99.90;;;;;;5078104;28;20043;-79
2022/07/30 04:18:47;;;;;;;0.57;0.57;;;23.70;99.90;;;;;;5061938;28;20040;-78
2022/07/30 04:21:17;;;;;;;0.00;0.00;;;23.50;99.90;;;;;;5112211;28;20012;-78
2022/07/30 04:23:46;;;;;;;12.20;0.52;;;23.40;99.90;;;;;;5108669;28;20039;-79
2022/07/30 04:26:13;;;;;;;1.23;0.80;;;23.20;99.90;;;;;;5080872;28;20123;-78
2022/07/30 04:28:40;;;;;;;0.52;0.47;;;23.10;99.90;;;;;;5100231;28;20030;-78
2022/07/30 04:31:06;;;;;;;3.63;1.00;;;23.00;99.90;;;;;;5098019;28;20031;-78
2022/07/30 04:33:32;;;;;;;7.22;2.80;;;23.10;99.90;;;;;;5080636;28;20035;-78
2022/07/30 04:35:58;;;;;;;5.10;2.25;;;23.10;99.90;;;;;;5100226;28;20023;-78
2022/07/30 04:38:24;;;;;;;2.55;1.85;;;22.90;99.90;;;;;;5081876;28;20472;-77
2022/07/30 04:40:50;;;;;;;8.10;4.40;;;22.80;99.90;;;;;;5099514;28;20085;-77
2022/07/30 04:43:16;;;;;;;4.20;1.30;;;22.80;99.90;;;;;;5096690;28;20376;-77
2022/07/30 04:45:43;;;;;;;0.10;0.10;;;22.60;99.90;;;;;;5078579;28;20426;-76
2022/07/30 04:48:09;;;;;;;4.78;3.38;;;22.70;99.90;;;;;;5079637;28;20102;-77
2022/07/30 04:50:39;;;;;;;10.07;4.57;;;23.00;99.90;;;;;;5074396;28;20110;-75
2022/07/30 04:53:06;;;;;;;4.93;3.05;;;23.20;99.90;;;;;;5096284;28;20032;-78
2022/07/30 04:55:34;;;;;;;1.45;0.75;;;23.30;99.90;;;;;;5095657;28;20027;-76
2022/07/30 04:58:01;;;;;;;2.40;1.45;;;23.30;99.90;;;;;;5079376;28;20033;-76
2022/07/30 05:00:28;;;;;;;6.60;1.85;;;23.40;99.90;;;;;;5070396;28;20369;-77
2022/07/30 05:02:56;;;;;;;5.05;2.00;;;23.50;99.90;;;;;;5075100;28;20028;-78
2022/07/30 05:05:24;;;;;;;2.78;1.90;;;23.40;99.90;;;;;;5075623;28;20476;-78
2022/07/30 05:07:51;;;;;;;13.35;4.18;;;23.50;99.90;;;;;;5075406;28;20031;-77
2022/07/30 05:10:17;;;;;;;13.93;3.65;;;23.50;99.90;;;;;;5078059;28;20016;-76
2022/07/30 05:12:44;;;;;;;8.73;4.38;;;23.40;99.90;;;;;;5079096;28;20029;-77
2022/07/30 05:15:10;;;;;;;1.13;1.02;;;23.60;99.90;;;;;;5075689;28;20025;-79
2022/07/30 05:17:37;;;;;;;8.80;2.90;;;23.90;99.90;;;;;;5097557;28;20084;-78
2022/07/30 05:20:04;;;;;;;1.02;1.02;;;24.10;99.90;;;;;;5092248;28;20056;-77
2022/07/30 05:22:30;;;;;;;7.43;3.83;;;24.10;99.90;;;;;;5074864;28;20020;-77
2022/07/30 05:24:56;;;;;;;2.08;0.57;;;24.10;99.90;;;;;;5063421;28;20043;-77
2022/07/30 05:27:23;;;;;;;0.47;0.43;;;23.60;99.90;;;;;;5080447;28;20250;-77
2022/07/30 05:29:49;;;;;;;4.53;1.60;;;23.80;99.90;;;;;;5074408;28;20016;-78
2022/07/30 05:32:15;;;;;;;3.00;1.55;;;24.00;99.90;;;;;;5094774;28;20048;-77
2022/07/30 05:34:41;;;;;;;0.30;0.20;;;23.90;99.90;;;;;;5086687;28;20029;-76
2022/07/30 05:37:07;;;;;;;5.05;2.65;;;24.20;99.90;;;;;;5090191;28;20118;-76
2022/07/30 05:39:33;;;;;;;1.23;1.20;;;24.20;99.90;;;;;;5076383;28;20082;-78
2022/07/30 05:41:59;;;;;;;0.15;0.05;;;24.30;99.90;;;;;;5094356;28;20025;-77
2022/07/30 05:44:25;;;;;;;1.77;1.40;;;24.00;99.90;;;;;;5094638;28;20030;-77
2022/07/30 05:46:51;;;;;;;0.00;0.00;;;24.20;99.90;;;;;;5074765;28;20027;-77
2022/07/30 05:49:17;;;;;;;0.35;0.35;;;24.60;99.90;;;;;;5076307;28;20028;-78
2022/07/30 05:51:43;;;;;;;0.00;0.00;;;24.70;99.90;;;;;;5081309;28;20074;-80
2022/07/30 05:54:09;;;;;;;0.00;0.00;;;24.70;99.90;;;;;;5071539;28;20021;-79
2022/07/30 05:56:36;;;;;;;0.35;0.35;;;24.40;99.90;;;;;;5074208;28;20388;-79
2022/07/30 05:59:03;;;;;;;4.22;1.67;;;24.40;99.90;;;;;;5052575;28;20402;-78
2022/07/30 06:01:29;;;;;;;0.40;0.38;;;24.60;99.90;;;;;;5057941;28;20021;-78
2022/07/30 06:03:55;;;;;;;1.75;1.65;;;24.60;99.90;;;;;;5056998;28;20025;-78
2022/07/30 06:06:21;;;;;;;1.17;1.08;;;24.60;99.90;;;;;;5063585;28;20032;-77
2022/07/30 06:08:48;;;;;;;0.95;0.47;;;24.60;99.90;;;;;;5078645;28;20024;-77
2022/07/30 06:11:15;;;;;;;2.28;1.38;;;24.40;99.90;;;;;;5073967;28;20021;-77
2022/07/30 06:13:42;;;;;;;0.25;0.17;;;24.80;99.90;;;;;;5062713;28;20358;-77
2022/07/30 06:16:08;;;;;;;0.00;0.00;;;25.00;99.90;;;;;;5053779;28;20029;-77
2022/07/30 06:18:34;;;;;;;0.10;0.10;;;25.30;99.90;;;;;;5059385;28;20029;-78
2022/07/30 06:21:00;;;;;;;20.83;4.40;;;25.40;99.90;;;;;;5062187;28;20029;-77
2022/07/30 06:23:26;;;;;;;4.90;2.38;;;25.30;99.90;;;;;;5066867;28;20503;-77
2022/07/30 06:25:52;;;;;;;1.45;0.82;;;25.50;99.90;;;;;;5060613;28;20036;-78
2022/07/30 06:28:18;;;;;;;0.00;0.00;;;25.30;99.90;;;;;;5070687;28;20029;-78
2022/07/30 06:30:46;;;;;;;0.00;0.00;;;25.70;99.90;;;;;;5060862;28;20484;-78
2022/07/30 06:33:12;;;;;;;0.65;0.30;;;25.20;99.90;;;;;;5067181;28;20025;-77
2022/07/30 06:35:38;;;;;;;4.05;0.80;;;25.80;99.90;;;;;;5061475;28;20546;-78
2022/07/30 06:38:04;;;;;;;1.25;1.13;;;26.10;99.90;;;;;;5063099;28;20059;-76
2022/07/30 06:40:31;;;;;;;0.30;0.30;;;26.00;99.90;;;;;;5086880;28;20017;-77
2022/07/30 06:42:57;;;;;;;2.90;0.52;;;26.00;99.90;;;;;;5061933;28;20025;-76
2022/07/30 06:45:23;;;;;;;0.00;0.00;;;26.30;99.90;;;;;;5062765;28;20025;-76
2022/07/30 06:47:49;;;;;;;0.52;0.20;;;26.00;99.90;;;;;;5062658;28;20055;-77
2022/07/30 06:50:15;;;;;;;0.03;0.00;;;26.20;99.90;;;;;;5061692;28;20079;-76
2022/07/30 06:52:41;;;;;;;0.00;0.00;;;26.60;99.90;;;;;;5067183;28;20537;-76
2022/07/30 06:55:07;;;;;;;2.05;1.95;;;26.70;99.90;;;;;;5062885;28;20109;-76
2022/07/30 06:57:38;;;;;;;0.47;0.35;;;26.70;99.90;;;;;;5075604;28;20113;-77
2022/07/30 07:00:06;;;;;;;0.45;0.32;;;26.20;99.90;;;;;;5063886;28;20453;-76
2022/07/30 07:02:32;;;;;;;0.00;0.00;;;26.30;99.90;;;;;;5084452;28;20026;-76
2022/07/30 07:04:58;;;;;;;0.90;0.85;;;26.00;99.90;;;;;;5084270;28;20043;-76
2022/07/30 07:07:24;;;;;;;0.20;0.20;;;26.20;99.90;;;;;;5093081;28;20544;-76
2022/07/30 07:09:50;;;;;;;0.28;0.13;;;26.80;99.90;;;;;;5076385;28;20043;-76
2022/07/30 07:12:16;;;;;;;0.20;0.20;;;26.90;99.90;;;;;;5084611;28;20381;-77
2022/07/30 07:14:42;;;;;;;0.00;0.00;;;26.80;99.90;;;;;;5092713;28;20129;-79
2022/07/30 07:17:08;;;;;;;0.40;0.20;;;26.50;99.90;;;;;;5089408;28;20016;-80
2022/07/30 07:19:34;;;;;;;4.18;2.67;;;26.70;99.90;;;;;;5078507;28;20116;-78
2022/07/30 07:22:00;;;;;;;3.92;1.85;;;26.40;99.90;;;;;;5063123;28;20020;-78
2022/07/30 07:24:27;;;;;;;0.20;0.20;;;25.90;99.90;;;;;;5082454;28;20089;-79
2022/07/30 07:26:53;;;;;;;0.00;0.00;;;26.10;99.90;;;;;;5075875;28;20020;-77
2022/07/30 07:29:19;;;;;;;3.78;3.58;;;26.40;99.90;;;;;;5073157;28;20020;-79
2022/07/30 07:31:45;;;;;;;2.05;0.68;;;26.80;99.90;;;;;;5078918;28;20035;-79
2022/07/30 07:34:11;;;;;;;0.00;0.00;;;27.10;99.90;;;;;;5076770;28;20109;-78
2022/07/30 07:36:38;;;;;;;0.00;0.00;;;26.70;99.90;;;;;;5077668;28;20457;-78
2022/07/30 07:39:08;;;;;;;0.00;0.00;;;26.50;99.90;;;;;;5081264;28;20017;-78
2022/07/30 07:41:38;;;;;;;2.72;1.17;;;26.50;99.90;;;;;;5078992;28;20074;-78
2022/07/30 07:44:05;;;;;;;2.85;1.05;;;26.40;99.90;;;;;;5079785;28;20027;-79
2022/07/30 07:46:32;;;;;;;0.00;0.00;;;26.90;99.90;;;;;;5087385;28;20027;-78
2022/07/30 07:48:58;;;;;;;2.03;1.88;;;27.50;99.90;;;;;;5075025;28;20433;-79
2022/07/30 07:51:24;;;;;;;0.00;0.00;;;27.40;99.90;;;;;;5059189;28;20051;-79
2022/07/30 07:53:50;;;;;;;0.00;0.00;;;27.70;96.60;;;;;;5085235;28;20062;-78
2022/07/30 07:56:16;;;;;;;0.00;0.00;;;28.20;96.10;;;;;;5059500;28;20033;-77
2022/07/30 07:58:42;;;;;;;0.47;0.47;;;28.40;96.50;;;;;;5065477;28;20411;-78
2022/07/30 08:01:08;;;;;;;0.43;0.20;;;27.40;97.80;;;;;;5057084;28;20026;-77
2022/07/30 08:03:34;;;;;;;1.35;1.25;;;27.50;98.80;;;;;;5064913;28;20021;-76
2022/07/30 08:06:00;;;;;;;0.00;0.00;;;27.70;98.40;;;;;;5058875;28;20048;-77
2022/07/30 08:08:26;;;;;;;1.02;0.32;;;27.70;97.20;;;;;;5056805;28;20032;-77
2022/07/30 08:10:52;;;;;;;0.00;0.00;;;27.20;98.30;;;;;;5061668;28;20032;-76
2022/07/30 08:13:18;;;;;;;0.00;0.00;;;27.30;96.80;;;;;;5065938;28;20108;-77
2022/07/30 08:15:44;;;;;;;0.70;0.70;;;27.70;96.30;;;;;;5073818;28;20028;-76
2022/07/30 08:18:11;;;;;;;1.00;1.00;;;28.10;94.40;;;;;;5068948;28;20029;-78
2022/07/30 08:20:38;;;;;;;1.27;0.35;;;28.50;92.20;;;;;;5085799;28;20028;-76
2022/07/30 08:23:05;;;;;;;0.98;0.98;;;28.90;88.20;;;;;;5072177;28;20021;-76
2022/07/30 08:25:31;;;;;;;2.13;1.35;;;29.20;84.70;;;;;;5066989;28;20446;-76
2022/07/30 08:27:59;;;;;;;2.03;0.43;;;29.00;83.80;;;;;;5056477;28;20078;-76
2022/07/30 08:30:25;;;;;;;6.22;2.38;;;28.80;83.80;;;;;;5065051;28;20031;-76
2022/07/30 08:32:51;;;;;;;1.63;1.52;;;27.80;88.60;;;;;;5077271;28;20021;-75
2022/07/30 08:35:17;;;;;;;3.92;2.05;;;27.80;87.70;;;;;;5079024;28;20063;-76
2022/07/30 08:37:43;;;;;;;2.10;0.63;;;27.80;88.30;;;;;;5071518;28;20108;-76
2022/07/30 08:40:10;;;;;;;5.25;1.85;;;27.30;88.40;;;;;;5053721;28;20074;-76
2022/07/30 08:42:37;;;;;;;1.35;1.33;;;27.60;89.50;;;;;;5064504;28;20017;-76
2022/07/30 08:45:05;;;;;;;0.52;0.10;;;27.60;89.00;;;;;;5066581;28;20031;-79
2022/07/30 08:47:33;;;;;;;0.20;0.13;;;27.80;89.10;;;;;;5061178;28;20092;-77
2022/07/30 08:50:03;;;;;;;0.47;0.47;;;28.30;84.90;;;;;;5071580;28;20029;-78
2022/07/30 08:52:32;;;;;;;0.00;0.00;;;28.40;82.40;;;;;;5075126;28;20023;-78
2022/07/30 08:54:59;;;;;;;0.35;0.35;;;28.60;84.00;;;;;;5078108;28;20430;-78
2022/07/30 08:57:29;;;;;;;0.25;0.25;;;29.00;79.20;;;;;;5093148;28;20035;-75
2022/07/30 08:59:57;;;;;;;0.45;0.45;;;29.00;78.20;;;;;;5089603;28;20028;-76
2022/07/30 09:02:23;;;;;;;0.30;0.30;;;28.20;77.90;;;;;;5092468;28;20028;-77
2022/07/30 09:04:49;;;;;;;0.10;0.10;;;28.40;78.30;;;;;;5097894;28;20033;-76
2022/07/30 09:07:15;;;;;;;0.00;0.00;;;28.60;75.70;;;;;;5102140;28;20475;-76
2022/07/30 09:09:42;;;;;;;0.00;0.00;;;28.80;74.30;;;;;;5098730;28;20028;-77
2022/07/30 09:12:35;;;;;;;0.00;0.00;;;29.20;71.60;;;;;;5086117;28;20028;-78
2022/07/30 09:15:05;;;;;;;0.20;0.20;;;28.30;73.10;;;;;;5088714;28;20038;-79
2022/07/30 09:18:07;;;;;;;0.00;0.00;;;27.70;76.10;;;;;;5070312;28;20107;-80
2022/07/30 09:20:34;;;;;;;0.00;0.00;;;27.90;75.80;;;;;;5005270;28;20483;-79
2022/07/30 09:23:03;;;;;;;0.00;0.00;;;28.20;74.70;;;;;;5056014;28;20452;-78
2022/07/30 09:25:41;;;;;;;2.35;1.02;;;28.30;75.80;;;;;;5069841;28;20396;-78
2022/07/30 09:28:09;;;;;;;2.53;0.40;;;28.50;75.20;;;;;;5086716;28;20029;-78
2022/07/30 09:30:56;;;;;;;2.55;2.40;;;28.20;75.20;;;;;;5092902;28;20102;-77
2022/07/30 09:33:33;;;;;;;1.15;0.68;;;27.90;78.20;;;;;;5089685;28;20028;-78
2022/07/30 09:36:00;;;;;;;0.00;0.00;;;27.50;77.40;;;;;;5063568;28;20473;-79
2022/07/30 09:38:27;;;;;;;0.38;0.38;;;27.30;80.90;;;;;;5074405;28;20021;-78
2022/07/30 09:40:55;;;;;;;0.00;0.00;;;27.30;81.80;;;;;;5089052;28;20028;-77
2022/07/30 09:43:21;;;;;;;0.45;0.45;;;27.40;82.90;;;;;;5083629;28;20156;-77
2022/07/30 09:45:57;;;;;;;0.10;0.10;;;27.40;81.20;;;;;;5075569;28;20020;-77
2022/07/30 09:48:26;;;;;;;0.00;0.00;;;27.00;84.40;;;;;;5068112;28;20032;-77
2022/07/30 09:50:53;;;;;;;0.00;0.00;;;26.90;84.30;;;;;;5076767;28;20020;-79
2022/07/30 09:53:21;;;;;;;0.32;0.25;;;27.10;83.60;;;;;;5070631;28;20028;-80
2022/07/30 09:55:48;;;;;;;0.17;0.17;;;27.20;82.70;;;;;;5082022;28;20523;-78
2022/07/30 09:58:14;;;;;;;0.25;0.25;;;27.10;84.00;;;;;;5087802;28;20044;-83
2022/07/30 10:00:41;;;;;;;0.00;0.00;;;27.20;83.90;;;;;;5091864;28;20082;-80
2022/07/30 10:03:25;;;;;;;0.00;0.00;;;27.10;84.50;;;;;;5091259;28;20093;-83
2022/07/30 10:05:52;;;;;;;0.00;0.00;;;26.90;87.20;;;;;;5084192;28;20091;-81
2022/07/30 10:08:18;;;;;;;0.00;0.00;;;27.00;88.40;;;;;;5079656;28;20116;-81
2022/07/30 10:10:45;;;;;;;0.20;0.10;;;27.20;88.40;;;;;;5089382;28;20028;-82
2022/07/30 10:13:13;;;;;;;0.00;0.00;;;27.10;89.70;;;;;;5065654;28;20043;-82
2022/07/30 10:15:40;;;;;;;0.08;0.08;;;27.00;90.20;;;;;;5085035;28;20434;-79
2022/07/30 10:18:06;;;;;;;0.10;0.10;;;27.00;90.10;;;;;;5093372;28;20111;-80
2022/07/30 10:20:32;;;;;;;0.00;0.00;;;26.90;99.90;;;;;;5074711;28;20024;-80
2022/07/30 10:22:59;;;;;;;0.00;0.00;;;26.80;99.90;;;;;;5067290;28;20032;-81
2022/07/30 10:25:26;;;;;;;0.00;0.00;;;26.40;99.90;;;;;;5088053;28;20078;-80
2022/07/30 10:27:52;;;;;;;2.60;2.03;;;26.00;99.90;;;;;;5067075;28;20019;-80
2022/07/30 10:30:19;;;;;;;0.08;0.08;;;25.50;99.90;;;;;;5113911;28;20028;-80
2022/07/30 10:32:45;;;;;;;1.75;1.65;;;25.00;99.90;;;;;;5111375;28;20138;-78
2022/07/30 10:35:12;;;;;;;0.22;0.15;;;24.60;99.90;;;;;;5106822;28;20029;-80
2022/07/30 10:37:45;;;;;;;0.08;0.08;;;24.30;99.90;;;;;;5066774;28;20393;-79
2022/07/30 10:40:11;;;;;;;1.65;0.85;;;24.00;99.90;;;;;;5087601;28;20051;-80
2022/07/30 10:43:12;;;;;;;0.15;0.15;;;23.90;99.90;;;;;;5094837;28;20511;-79
2022/07/30 10:46:07;;;;;;;0.00;0.00;;;23.60;99.90;;;;;;5087197;28;20027;-79
2022/07/30 10:48:35;;;;;;;4.25;3.88;;;22.90;99.90;;;;;;5091017;28;20055;-83
2022/07/30 10:51:01;;;;;;;0.00;0.00;;;22.50;99.90;;;;;;5077547;28;20035;-84
2022/07/30 10:53:36;;;;;;;0.47;0.35;;;22.20;99.90;;;;;;5113551;28;20035;-84
2022/07/30 10:56:20;;;;;;;1.92;1.25;;;22.00;99.90;;;;;;5099291;28;20032;-84
2022/07/30 10:59:00;;;;;;;0.45;0.32;;;21.60;99.90;;;;;;5095818;28;20044;-81
2022/07/30 11:01:46;;;;;;;0.47;0.20;;;21.00;99.90;;;;;;5101352;28;20023;-80
2022/07/30 11:04:28;;;;;;;0.00;0.00;;;20.70;99.90;;;;;;5080243;28;20016;-84
2022/07/30 11:07:22;;;;;;;0.00;0.00;;;20.70;99.90;;;;;;5073469;28;20025;-82
2022/07/30 11:09:56;;;;;;;0.00;0.00;;;20.80;99.90;;;;;;5080025;28;20020;-83
2022/07/30 11:12:48;;;;;;;0.77;0.30;;;21.10;99.90;;;;;;5078498;28;20028;-83
2022/07/30 11:15:15;;;;;;;0.20;0.20;;;21.50;99.90;;;;;;5091095;28;20518;-82
2022/07/30 11:18:00;;;;;;;0.10;0.10;;;21.70;99.90;;;;;;5092995;28;20027;-83
2022/07/30 11:20:27;;;;;;;0.20;0.17;;;22.00;99.90;;;;;;5107991;28;20028;-83
2022/07/30 11:22:53;;;;;;;0.03;0.03;;;22.30;99.90;;;;;;5117059;28;20131;-81
2022/07/30 11:25:22;;;;;;;0.00;0.00;;;22.50;99.90;;;;;;5094304;28;20035;-83
2022/07/30 11:27:49;;;;;;;0.10;0.10;;;22.60;99.90;;;;;;5091720;28;20495;-82
2022/07/30 11:30:15;;;;;;;0.22;0.13;;;22.50;99.90;;;;;;5092180;28;20384;-81
2022/07/30 11:32:49;;;;;;;0.13;0.10;;;22.60;99.90;;;;;;5089401;28;20032;-81
2022/07/30 11:35:26;;;;;;;0.22;0.22;;;22.80;99.90;;;;;;5089099;28;20055;-81
2022/07/30 11:38:14;;;;;;;0.17;0.17;;;22.90;99.90;;;;;;5075227;28;20031;-81
2022/07/30 11:40:47;;;;;;;0.10;0.10;;;23.00;99.90;;;;;;5088069;28;20035;-81
2022/07/30 11:43:17;;;;;;;0.00;0.00;;;23.00;99.90;;;;;;5087892;28;20020;-81
2022/07/30 11:45:51;;;;;;;0.00;0.00;;;23.10;99.90;;;;;;5089993;28;20020;-82
2022/07/30 11:48:19;;;;;;;0.00;0.00;;;23.20;99.90;;;;;;5083530;28;20087;-82
2022/07/30 11:50:47;;;;;;;0.00;0.00;;;23.40;99.90;;;;;;5113997;28;20151;-77
2022/07/30 11:53:19;;;;;;;0.82;0.38;;;23.40;99.90;;;;;;5074000;28;20058;-80
2022/07/30 11:55:56;;;;;;;1.10;1.10;;;23.50;99.90;;;;;;5092682;28;20020;-80
2022/07/30 11:58:35;;;;;;;3.33;3.13;;;23.50;99.90;;;;;;5087357;28;20091;-80
2022/07/30 12:01:13;;;;;;;0.00;0.00;;;23.70;99.90;;;;;;5089368;28;20044;-79
2022/07/30 12:03:41;;;;;;;0.00;0.00;;;24.20;99.90;;;;;;5088716;28;20028;-80
2022/07/30 12:06:18;;;;;;;0.00;0.00;;;24.20;99.90;;;;;;5086738;28;20066;-79
2022/07/30 12:08:46;;;;;;;0.00;0.00;;;24.40;99.90;;;;;;5088497;28;20028;-80
2022/07/30 12:11:12;;;;;;;0.00;0.00;;;24.60;99.90;;;;;;5088693;28;20544;-81
2022/07/30 12:13:40;;;;;;;0.00;0.00;;;24.60;97.00;;;;;;5091351;28;20024;-82
2022/07/30 12:16:16;;;;;;;0.00;0.00;;;24.60;97.00;;;;;;5070272;28;20039;-82
2022/07/30 12:18:43;;;;;;;0.00;0.00;;;24.70;99.90;;;;;;5067465;28;20043;-81
2022/07/30 12:21:16;;;;;;;0.00;0.00;;;24.90;94.60;;;;;;5085685;28;20024;-81
2022/07/30 12:23:59;;;;;;;0.00;0.00;;;24.70;99.90;;;;;;5092013;28;20023;-81
2022/07/30 12:26:33;;;;;;;0.00;0.00;;;24.80;94.40;;;;;;5077088;28;20016;-82
2022/07/30 12:29:12;;;;;;;0.00;0.00;;;25.00;90.20;;;;;;5105153;28;20047;-81
2022/07/30 12:31:39;;;;;;;0.00;0.00;;;25.20;84.00;;;;;;5090285;28;20028;-82
2022/07/30 12:34:19;;;;;;;0.00;0.00;;;25.20;93.20;;;;;;5070517;28;20020;-81
2022/07/30 12:36:45;;;;;;;0.00;0.00;;;25.50;89.20;;;;;;5087243;28;20048;-81
2022/07/30 12:39:21;;;;;;;0.00;0.00;;;25.60;86.20;;;;;;5093384;28;20020;-81
2022/07/30 12:41:49;;;;;;;0.00;0.00;;;25.70;88.40;;;;;;5092464;28;20024;-81
2022/07/30 12:44:48;;;;;;;0.00;0.00;;;25.60;84.70;;;;;;5073442;28;20274;-81
2022/07/30 12:47:24;;;;;;;0.00;0.00;;;25.50;81.50;;;;;;5094029;28;20047;-82
2022/07/30 12:49:51;;;;;;;0.00;0.00;;;25.50;85.30;;;;;;5094990;28;20077;-81
2022/07/30 12:52:22;;;;;;;0.00;0.00;;;25.60;85.70;;;;;;5077774;28;20489;-81
2022/07/30 12:55:11;;;;;;;0.00;0.00;;;25.50;84.60;;;;;;5096001;28;20024;-81
2022/07/30 12:57:56;;;;;;;0.00;0.00;;;25.40;87.90;;;;;;5091413;28;20020;-82
2022/07/30 13:00:25;;;;;;;0.00;0.00;;;25.20;89.10;;;;;;5084278;28;20127;-81